Aviation Digital Data Service (ADDS)

Output produced by METARs form (0607 UTC 21 January 2019)
found at http://www.aviationweather.gov/metar/data/
 
METAR text: EBFS 210555Z AUTO VRB01KT 9999 FEW210/// M05/M07 Q1021 BLU
Conditions at: EBFS (FLORENNES (BEL-A, BE) observed 0555 UTC 21 January 2019
Temperature: -5.0°C (23°F)
Dewpoint: -7.0°C (19°F) [RH = 86%]
Pressure (altimeter): 30.15 inches Hg (1021.0 mb)
Winds: variable direction winds at 1 MPH (1 knots; 0.5 m/s)
Visibility: 6 or more miles (10+ km)
Ceiling: at least 12,000 feet AGL
Clouds: few clouds at 21000 feet AGL
Weather: no significant weather observed at this time

METAR text: EBFS 210525Z AUTO VRB01KT 9999 NCD M05/M08 Q1021 BLU
Conditions at: EBFS (FLORENNES (BEL-A, BE) observed 0525 UTC 21 January 2019
Temperature: -5.0°C (23°F)
Dewpoint: -8.0°C (18°F) [RH = 79%]
Pressure (altimeter): 30.15 inches Hg (1021.0 mb)
Winds: variable direction winds at 1 MPH (1 knots; 0.5 m/s)
Visibility: 6 or more miles (10+ km)
Ceiling: at least 12,000 feet AGL
Clouds: sky clear below 12,000 feet AGL
Weather: no significant weather observed at this time

METAR text: EBFS 210455Z AUTO VRB01KT 9999 FEW220/// M05/M08 Q1021 BLU
Conditions at: EBFS (FLORENNES (BEL-A, BE) observed 0455 UTC 21 January 2019
Temperature: -5.0°C (23°F)
Dewpoint: -8.0°C (18°F) [RH = 79%]
Pressure (altimeter): 30.15 inches Hg (1021.0 mb)
Winds: variable direction winds at 1 MPH (1 knots; 0.5 m/s)
Visibility: 6 or more miles (10+ km)
Ceiling: at least 12,000 feet AGL
Clouds: few clouds at 22000 feet AGL
Weather: no significant weather observed at this time

METAR text: EBFS 210425Z AUTO VRB01KT 9999 NCD M05/M07 Q1021 BLU
Conditions at: EBFS (FLORENNES (BEL-A, BE) observed 0425 UTC 21 January 2019
Temperature: -5.0°C (23°F)
Dewpoint: -7.0°C (19°F) [RH = 86%]
Pressure (altimeter): 30.15 inches Hg (1021.0 mb)
Winds: variable direction winds at 1 MPH (1 knots; 0.5 m/s)
Visibility: 6 or more miles (10+ km)
Ceiling: at least 12,000 feet AGL
Clouds: sky clear below 12,000 feet AGL
Weather: no significant weather observed at this time

METAR text: EBFS 210355Z AUTO VRB01KT 9999 NCD M05/M07 Q1021 BLU
Conditions at: EBFS (FLORENNES (BEL-A, BE) observed 0355 UTC 21 January 2019
Temperature: -5.0°C (23°F)
Dewpoint: -7.0°C (19°F) [RH = 86%]
Pressure (altimeter): 30.15 inches Hg (1021.0 mb)
Winds: variable direction winds at 1 MPH (1 knots; 0.5 m/s)
Visibility: 6 or more miles (10+ km)
Ceiling: at least 12,000 feet AGL
Clouds: sky clear below 12,000 feet AGL
Weather: no significant weather observed at this time

METAR text: EBFS 210325Z AUTO VRB01KT 9999 FEW210/// M05/M07 Q1021 BLU
Conditions at: EBFS (FLORENNES (BEL-A, BE) observed 0325 UTC 21 January 2019
Temperature: -5.0°C (23°F)
Dewpoint: -7.0°C (19°F) [RH = 86%]
Pressure (altimeter): 30.15 inches Hg (1021.0 mb)
Winds: variable direction winds at 1 MPH (1 knots; 0.5 m/s)
Visibility: 6 or more miles (10+ km)
Ceiling: at least 12,000 feet AGL
Clouds: few clouds at 21000 feet AGL
Weather: no significant weather observed at this time

METAR text: EBFS 210255Z AUTO VRB02KT 9999 FEW210/// M05/M07 Q1021 BLU
Conditions at: EBFS (FLORENNES (BEL-A, BE) observed 0255 UTC 21 January 2019
Temperature: -5.0°C (23°F)
Dewpoint: -7.0°C (19°F) [RH = 86%]
Pressure (altimeter): 30.15 inches Hg (1021.0 mb)
Winds: variable direction winds at 2 MPH (2 knots; 1.0 m/s)
Visibility: 6 or more miles (10+ km)
Ceiling: at least 12,000 feet AGL
Clouds: few clouds at 21000 feet AGL
Weather: no significant weather observed at this time

METAR text: EBFS 210225Z AUTO VRB02KT 9000 FEW210/// M05/M07 Q1021 BLU
Conditions at: EBFS (FLORENNES (BEL-A, BE) observed 0225 UTC 21 January 2019
Temperature: -5.0°C (23°F)
Dewpoint: -7.0°C (19°F) [RH = 86%]
Pressure (altimeter): 30.15 inches Hg (1021.0 mb)
Winds: variable direction winds at 2 MPH (2 knots; 1.0 m/s)
Visibility: 6 miles ( 9 km)
Ceiling: at least 12,000 feet AGL
Clouds: few clouds at 21000 feet AGL
Weather: no significant weather observed at this time

METAR text: EBFS 210155Z AUTO VRB02KT 8000 FEW210/// M06/M08 Q1021 BLU
Conditions at: EBFS (FLORENNES (BEL-A, BE) observed 0155 UTC 21 January 2019
Temperature: -6.0°C (21°F)
Dewpoint: -8.0°C (18°F) [RH = 86%]
Pressure (altimeter): 30.15 inches Hg (1021.0 mb)
Winds: variable direction winds at 2 MPH (2 knots; 1.0 m/s)
Visibility: 5 miles ( 8 km)
Ceiling: at least 12,000 feet AGL
Clouds: few clouds at 21000 feet AGL
Weather: no significant weather observed at this time

METAR text: EBFS 210151Z AUTO VRB01KT 7000 FEW210/// M06/M09 Q1021 WHT
Conditions at: EBFS (FLORENNES (BEL-A, BE) observed 0151 UTC 21 January 2019
Temperature: -6.0°C (21°F)
Dewpoint: -9.0°C (16°F) [RH = 79%]
Pressure (altimeter): 30.15 inches Hg (1021.0 mb)
Winds: variable direction winds at 1 MPH (1 knots; 0.5 m/s)
Visibility: 4 miles ( 7 km)
Ceiling: at least 12,000 feet AGL
Clouds: few clouds at 21000 feet AGL
Weather: no significant weather observed at this time

METAR text: EBFS 210125Z AUTO VRB01KT 9999 FEW220/// M04/M07 Q1021 BLU
Conditions at: EBFS (FLORENNES (BEL-A, BE) observed 0125 UTC 21 January 2019
Temperature: -4.0°C (25°F)
Dewpoint: -7.0°C (19°F) [RH = 80%]
Pressure (altimeter): 30.15 inches Hg (1021.0 mb)
Winds: variable direction winds at 1 MPH (1 knots; 0.5 m/s)
Visibility: 6 or more miles (10+ km)
Ceiling: at least 12,000 feet AGL
Clouds: few clouds at 22000 feet AGL
Weather: no significant weather observed at this time

METAR text: EBFS 210055Z AUTO VRB01KT 9999 NCD M05/M07 Q1020 BLU
Conditions at: EBFS (FLORENNES (BEL-A, BE) observed 0055 UTC 21 January 2019
Temperature: -5.0°C (23°F)
Dewpoint: -7.0°C (19°F) [RH = 86%]
Pressure (altimeter): 30.12 inches Hg (1020.0 mb)
Winds: variable direction winds at 1 MPH (1 knots; 0.5 m/s)
Visibility: 6 or more miles (10+ km)
Ceiling: at least 12,000 feet AGL
Clouds: sky clear below 12,000 feet AGL
Weather: no significant weather observed at this time

METAR text: EBFS 210025Z AUTO VRB02KT 9000 FEW210/// M05/M07 Q1020 BLU
Conditions at: EBFS (FLORENNES (BEL-A, BE) observed 0025 UTC 21 January 2019
Temperature: -5.0°C (23°F)
Dewpoint: -7.0°C (19°F) [RH = 86%]
Pressure (altimeter): 30.12 inches Hg (1020.0 mb)
Winds: variable direction winds at 2 MPH (2 knots; 1.0 m/s)
Visibility: 6 miles ( 9 km)
Ceiling: at least 12,000 feet AGL
Clouds: few clouds at 21000 feet AGL
Weather: no significant weather observed at this time

METAR text: EBFS 202355Z AUTO VRB02KT 9999 FEW200/// M04/M07 Q1020 BLU
Conditions at: EBFS (FLORENNES (BEL-A, BE) observed 2355 UTC 20 January 2019
Temperature: -4.0°C (25°F)
Dewpoint: -7.0°C (19°F) [RH = 80%]
Pressure (altimeter): 30.12 inches Hg (1020.0 mb)
Winds: variable direction winds at 2 MPH (2 knots; 1.0 m/s)
Visibility: 6 or more miles (10+ km)
Ceiling: at least 12,000 feet AGL
Clouds: few clouds at 20000 feet AGL
Weather: no significant weather observed at this time

METAR text: EBFS 202325Z AUTO VRB02KT 9000 FEW210/// M05/M06 Q1020 BLU
Conditions at: EBFS (FLORENNES (BEL-A, BE) observed 2325 UTC 20 January 2019
Temperature: -5.0°C (23°F)
Dewpoint: -6.0°C (21°F) [RH = 93%]
Pressure (altimeter): 30.12 inches Hg (1020.0 mb)
Winds: variable direction winds at 2 MPH (2 knots; 1.0 m/s)
Visibility: 6 miles ( 9 km)
Ceiling: at least 12,000 feet AGL
Clouds: few clouds at 21000 feet AGL
Weather: no significant weather observed at this time

METAR text: EBFS 202255Z AUTO 05003KT 8000 SCT210/// M05/M07 Q1020 BLU
Conditions at: EBFS (FLORENNES (BEL-A, BE) observed 2255 UTC 20 January 2019
Temperature: -5.0°C (23°F)
Dewpoint: -7.0°C (19°F) [RH = 86%]
Pressure (altimeter): 30.12 inches Hg (1020.0 mb)
Winds: from the NE (50 degrees) at 3 MPH (3 knots; 1.5 m/s)
Visibility: 5 miles ( 8 km)
Ceiling: at least 12,000 feet AGL
Clouds: scattered clouds at 21000 feet AGL
Weather: no significant weather observed at this time

METAR text: EBFS 202225Z AUTO VRB02KT 9999 SCT200/// M04/M06 Q1020 BLU
Conditions at: EBFS (FLORENNES (BEL-A, BE) observed 2225 UTC 20 January 2019
Temperature: -4.0°C (25°F)
Dewpoint: -6.0°C (21°F) [RH = 86%]
Pressure (altimeter): 30.12 inches Hg (1020.0 mb)
Winds: variable direction winds at 2 MPH (2 knots; 1.0 m/s)
Visibility: 6 or more miles (10+ km)
Ceiling: at least 12,000 feet AGL
Clouds: scattered clouds at 20000 feet AGL
Weather: no significant weather observed at this time

METAR text: EBFS 202155Z AUTO 07005KT 8000 BKN200/// M04/M06 Q1020 BLU
Conditions at: EBFS (FLORENNES (BEL-A, BE) observed 2155 UTC 20 January 2019
Temperature: -4.0°C (25°F)
Dewpoint: -6.0°C (21°F) [RH = 86%]
Pressure (altimeter): 30.12 inches Hg (1020.0 mb)
Winds: from the ENE (70 degrees) at 6 MPH (5 knots; 2.6 m/s)
Visibility: 5 miles ( 8 km)
Ceiling: 20000 feet AGL
Clouds: broken clouds at 20000 feet AGL
Weather: no significant weather observed at this time

METAR text: EBFS 202144Z AUTO 05004KT 7000 BKN210/// M04/M06 Q1020 WHT
Conditions at: EBFS (FLORENNES (BEL-A, BE) observed 2144 UTC 20 January 2019
Temperature: -4.0°C (25°F)
Dewpoint: -6.0°C (21°F) [RH = 86%]
Pressure (altimeter): 30.12 inches Hg (1020.0 mb)
Winds: from the NE (50 degrees) at 5 MPH (4 knots; 2.1 m/s)
Visibility: 4 miles ( 7 km)
Ceiling: 21000 feet AGL
Clouds: broken clouds at 21000 feet AGL
Weather: no significant weather observed at this time

METAR text: EBFS 202125Z AUTO 06003KT 8000 BKN210/// M04/M06 Q1019 BLU
Conditions at: EBFS (FLORENNES (BEL-A, BE) observed 2125 UTC 20 January 2019
Temperature: -4.0°C (25°F)
Dewpoint: -6.0°C (21°F) [RH = 86%]
Pressure (altimeter): 30.09 inches Hg (1019.0 mb)
Winds: from the ENE (60 degrees) at 3 MPH (3 knots; 1.5 m/s)
Visibility: 5 miles ( 8 km)
Ceiling: 21000 feet AGL
Clouds: broken clouds at 21000 feet AGL
Weather: no significant weather observed at this time

METAR text: EBFS 202055Z AUTO VRB02KT 9000 BKN210/// M03/M05 Q1019 BLU
Conditions at: EBFS (FLORENNES (BEL-A, BE) observed 2055 UTC 20 January 2019
Temperature: -3.0°C (27°F)
Dewpoint: -5.0°C (23°F) [RH = 86%]
Pressure (altimeter): 30.09 inches Hg (1019.0 mb)
Winds: variable direction winds at 2 MPH (2 knots; 1.0 m/s)
Visibility: 6 miles ( 9 km)
Ceiling: 21000 feet AGL
Clouds: broken clouds at 21000 feet AGL
Weather: no significant weather observed at this time

METAR text: EBFS 202025Z AUTO 05004KT 8000 BKN210/// M04/M06 Q1019 BLU
Conditions at: EBFS (FLORENNES (BEL-A, BE) observed 2025 UTC 20 January 2019
Temperature: -4.0°C (25°F)
Dewpoint: -6.0°C (21°F) [RH = 86%]
Pressure (altimeter): 30.09 inches Hg (1019.0 mb)
Winds: from the NE (50 degrees) at 5 MPH (4 knots; 2.1 m/s)
Visibility: 5 miles ( 8 km)
Ceiling: 21000 feet AGL
Clouds: broken clouds at 21000 feet AGL
Weather: no significant weather observed at this time

METAR text: EBFS 201955Z AUTO 04004KT 9000 BKN200/// M04/M06 Q1018 BLU
Conditions at: EBFS (FLORENNES (BEL-A, BE) observed 1955 UTC 20 January 2019
Temperature: -4.0°C (25°F)
Dewpoint: -6.0°C (21°F) [RH = 86%]
Pressure (altimeter): 30.06 inches Hg (1018.0 mb)
Winds: from the NE (40 degrees) at 5 MPH (4 knots; 2.1 m/s)
Visibility: 6 miles ( 9 km)
Ceiling: 20000 feet AGL
Clouds: broken clouds at 20000 feet AGL
Weather: no significant weather observed at this time

METAR text: EBFS 201925Z AUTO 05003KT 9999 BKN200/// M03/M06 Q1018 BLU
Conditions at: EBFS (FLORENNES (BEL-A, BE) observed 1925 UTC 20 January 2019
Temperature: -3.0°C (27°F)
Dewpoint: -6.0°C (21°F) [RH = 80%]
Pressure (altimeter): 30.06 inches Hg (1018.0 mb)
Winds: from the NE (50 degrees) at 3 MPH (3 knots; 1.5 m/s)
Visibility: 6 or more miles (10+ km)
Ceiling: 20000 feet AGL
Clouds: broken clouds at 20000 feet AGL
Weather: no significant weather observed at this time

METAR text: EBFS 201855Z AUTO 04003KT 9999 BKN210/// M03/M05 Q1018 BLU
Conditions at: EBFS (FLORENNES (BEL-A, BE) observed 1855 UTC 20 January 2019
Temperature: -3.0°C (27°F)
Dewpoint: -5.0°C (23°F) [RH = 86%]
Pressure (altimeter): 30.06 inches Hg (1018.0 mb)
Winds: from the NE (40 degrees) at 3 MPH (3 knots; 1.5 m/s)
Visibility: 6 or more miles (10+ km)
Ceiling: 21000 feet AGL
Clouds: broken clouds at 21000 feet AGL
Weather: no significant weather observed at this time

METAR text: EBFS 201825Z AUTO 04004KT 9999 BKN220/// M03/M05 Q1017 BLU
Conditions at: EBFS (FLORENNES (BEL-A, BE) observed 1825 UTC 20 January 2019
Temperature: -3.0°C (27°F)
Dewpoint: -5.0°C (23°F) [RH = 86%]
Pressure (altimeter): 30.03 inches Hg (1017.0 mb)
Winds: from the NE (40 degrees) at 5 MPH (4 knots; 2.1 m/s)
Visibility: 6 or more miles (10+ km)
Ceiling: 22000 feet AGL
Clouds: broken clouds at 22000 feet AGL
Weather: no significant weather observed at this time

METAR text: EBFS 201755Z AUTO 04003KT 9999 BKN210/// M02/M05 Q1017 BLU
Conditions at: EBFS (FLORENNES (BEL-A, BE) observed 1755 UTC 20 January 2019
Temperature: -2.0°C (28°F)
Dewpoint: -5.0°C (23°F) [RH = 80%]
Pressure (altimeter): 30.03 inches Hg (1017.0 mb)
Winds: from the NE (40 degrees) at 3 MPH (3 knots; 1.5 m/s)
Visibility: 6 or more miles (10+ km)
Ceiling: 21000 feet AGL
Clouds: broken clouds at 21000 feet AGL
Weather: no significant weather observed at this time

METAR text: EBFS 201725Z AUTO 03004KT 9999 BKN210/// M02/M05 Q1017 BLU
Conditions at: EBFS (FLORENNES (BEL-A, BE) observed 1725 UTC 20 January 2019
Temperature: -2.0°C (28°F)
Dewpoint: -5.0°C (23°F) [RH = 80%]
Pressure (altimeter): 30.03 inches Hg (1017.0 mb)
Winds: from the NNE (30 degrees) at 5 MPH (4 knots; 2.1 m/s)
Visibility: 6 or more miles (10+ km)
Ceiling: 21000 feet AGL
Clouds: broken clouds at 21000 feet AGL
Weather: no significant weather observed at this time

METAR text: EBFS 201655Z AUTO 02005KT 9999 BKN210/// M02/M05 Q1017 BLU
Conditions at: EBFS (FLORENNES (BEL-A, BE) observed 1655 UTC 20 January 2019
Temperature: -2.0°C (28°F)
Dewpoint: -5.0°C (23°F) [RH = 80%]
Pressure (altimeter): 30.03 inches Hg (1017.0 mb)
Winds: from the NNE (20 degrees) at 6 MPH (5 knots; 2.6 m/s)
Visibility: 6 or more miles (10+ km)
Ceiling: 21000 feet AGL
Clouds: broken clouds at 21000 feet AGL
Weather: no significant weather observed at this time

METAR text: EBFS 201625Z AUTO 02006KT 9999 SCT210/// M02/M05 Q1016 BLU
Conditions at: EBFS (FLORENNES (BEL-A, BE) observed 1625 UTC 20 January 2019
Temperature: -2.0°C (28°F)
Dewpoint: -5.0°C (23°F) [RH = 80%]
Pressure (altimeter): 30.00 inches Hg (1016.0 mb)
Winds: from the NNE (20 degrees) at 7 MPH (6 knots; 3.1 m/s)
Visibility: 6 or more miles (10+ km)
Ceiling: at least 12,000 feet AGL
Clouds: scattered clouds at 21000 feet AGL
Weather: no significant weather observed at this time

METAR text: EBFS 201555Z AUTO 02007KT 9999 FEW210/// M01/M05 Q1016 BLU
Conditions at: EBFS (FLORENNES (BEL-A, BE) observed 1555 UTC 20 January 2019
Temperature: -1.0°C (30°F)
Dewpoint: -5.0°C (23°F) [RH = 74%]
Pressure (altimeter): 30.00 inches Hg (1016.0 mb)
Winds: from the NNE (20 degrees) at 8 MPH (7 knots; 3.6 m/s)
Visibility: 6 or more miles (10+ km)
Ceiling: at least 12,000 feet AGL
Clouds: few clouds at 21000 feet AGL
Weather: no significant weather observed at this time

METAR text: EBFS 201525Z AUTO 02006KT 9999 NCD M00/M05 Q1015 BLU
Conditions at: EBFS (FLORENNES (BEL-A, BE) observed 1525 UTC 20 January 2019
Temperature: 0.0°C (32°F)
Dewpoint: -5.0°C (23°F) [RH = 69%]
Pressure (altimeter): 29.97 inches Hg (1015.0 mb)
Winds: from the NNE (20 degrees) at 7 MPH (6 knots; 3.1 m/s)
Visibility: 6 or more miles (10+ km)
Ceiling: at least 12,000 feet AGL
Clouds: sky clear below 12,000 feet AGL
Weather: no significant weather observed at this time

METAR text: EBFS 201455Z AUTO 03006KT 9999 FEW220/// 01/M06 Q1015 BLU
Conditions at: EBFS (FLORENNES (BEL-A, BE) observed 1455 UTC 20 January 2019
Temperature: 1.0°C (34°F)
Dewpoint: -6.0°C (21°F) [RH = 59%]
Pressure (altimeter): 29.97 inches Hg (1015.0 mb)
Winds: from the NNE (30 degrees) at 7 MPH (6 knots; 3.1 m/s)
Visibility: 6 or more miles (10+ km)
Ceiling: at least 12,000 feet AGL
Clouds: few clouds at 22000 feet AGL
Weather: no significant weather observed at this time

METAR text: EBFS 201425Z AUTO 01006KT 9999 FEW210/// 01/M05 Q1015 BLU
Conditions at: EBFS (FLORENNES (BEL-A, BE) observed 1425 UTC 20 January 2019
Temperature: 1.0°C (34°F)
Dewpoint: -5.0°C (23°F) [RH = 64%]
Pressure (altimeter): 29.97 inches Hg (1015.0 mb)
Winds: from the N (10 degrees) at 7 MPH (6 knots; 3.1 m/s)
Visibility: 6 or more miles (10+ km)
Ceiling: at least 12,000 feet AGL
Clouds: few clouds at 21000 feet AGL
Weather: no significant weather observed at this time

METAR text: EBFS 201355Z AUTO 03005KT 9999 FEW220/// 01/M06 Q1015 BLU
Conditions at: EBFS (FLORENNES (BEL-A, BE) observed 1355 UTC 20 January 2019
Temperature: 1.0°C (34°F)
Dewpoint: -6.0°C (21°F) [RH = 59%]
Pressure (altimeter): 29.97 inches Hg (1015.0 mb)
Winds: from the NNE (30 degrees) at 6 MPH (5 knots; 2.6 m/s)
Visibility: 6 or more miles (10+ km)
Ceiling: at least 12,000 feet AGL
Clouds: few clouds at 22000 feet AGL
Weather: no significant weather observed at this time

METAR text: EBFS 201325Z AUTO 02005KT 9999 NCD 01/M05 Q1015 BLU
Conditions at: EBFS (FLORENNES (BEL-A, BE) observed 1325 UTC 20 January 2019
Temperature: 1.0°C (34°F)
Dewpoint: -5.0°C (23°F) [RH = 64%]
Pressure (altimeter): 29.97 inches Hg (1015.0 mb)
Winds: from the NNE (20 degrees) at 6 MPH (5 knots; 2.6 m/s)
Visibility: 6 or more miles (10+ km)
Ceiling: at least 12,000 feet AGL
Clouds: sky clear below 12,000 feet AGL
Weather: no significant weather observed at this time

METAR text: EBFS 201255Z AUTO 01005KT 9999 FEW220/// 01/M05 Q1015 BLU
Conditions at: EBFS (FLORENNES (BEL-A, BE) observed 1255 UTC 20 January 2019
Temperature: 1.0°C (34°F)
Dewpoint: -5.0°C (23°F) [RH = 64%]
Pressure (altimeter): 29.97 inches Hg (1015.0 mb)
Winds: from the N (10 degrees) at 6 MPH (5 knots; 2.6 m/s)
Visibility: 6 or more miles (10+ km)
Ceiling: at least 12,000 feet AGL
Clouds: few clouds at 22000 feet AGL
Weather: no significant weather observed at this time

METAR text: EBFS 201225Z AUTO 07004KT 9999 NCD 01/M05 Q1014 BLU
Conditions at: EBFS (FLORENNES (BEL-A, BE) observed 1225 UTC 20 January 2019
Temperature: 1.0°C (34°F)
Dewpoint: -5.0°C (23°F) [RH = 64%]
Pressure (altimeter): 29.94 inches Hg (1014.0 mb)
Winds: from the ENE (70 degrees) at 5 MPH (4 knots; 2.1 m/s)
Visibility: 6 or more miles (10+ km)
Ceiling: at least 12,000 feet AGL
Clouds: sky clear below 12,000 feet AGL
Weather: no significant weather observed at this time

METAR text: EBFS 201155Z AUTO 08003KT 9999 NCD 00/M05 Q1014 BLU
Conditions at: EBFS (FLORENNES (BEL-A, BE) observed 1155 UTC 20 January 2019
Temperature: 0.0°C (32°F)
Dewpoint: -5.0°C (23°F) [RH = 69%]
Pressure (altimeter): 29.94 inches Hg (1014.0 mb)
Winds: from the E (80 degrees) at 3 MPH (3 knots; 1.5 m/s)
Visibility: 6 or more miles (10+ km)
Ceiling: at least 12,000 feet AGL
Clouds: sky clear below 12,000 feet AGL
Weather: no significant weather observed at this time

METAR text: EBFS 201125Z AUTO VRB02KT 9999 NCD M00/M05 Q1014 BLU
Conditions at: EBFS (FLORENNES (BEL-A, BE) observed 1125 UTC 20 January 2019
Temperature: 0.0°C (32°F)
Dewpoint: -5.0°C (23°F) [RH = 69%]
Pressure (altimeter): 29.94 inches Hg (1014.0 mb)
Winds: variable direction winds at 2 MPH (2 knots; 1.0 m/s)
Visibility: 6 or more miles (10+ km)
Ceiling: at least 12,000 feet AGL
Clouds: sky clear below 12,000 feet AGL
Weather: no significant weather observed at this time

METAR text: EBFS 201055Z AUTO 08003KT 9999 NCD M01/M05 Q1014 BLU
Conditions at: EBFS (FLORENNES (BEL-A, BE) observed 1055 UTC 20 January 2019
Temperature: -1.0°C (30°F)
Dewpoint: -5.0°C (23°F) [RH = 74%]
Pressure (altimeter): 29.94 inches Hg (1014.0 mb)
Winds: from the E (80 degrees) at 3 MPH (3 knots; 1.5 m/s)
Visibility: 6 or more miles (10+ km)
Ceiling: at least 12,000 feet AGL
Clouds: sky clear below 12,000 feet AGL
Weather: no significant weather observed at this time

METAR text: EBFS 201025Z AUTO 08004KT 9999 FEW220/// M01/M06 Q1014 BLU
Conditions at: EBFS (FLORENNES (BEL-A, BE) observed 1025 UTC 20 January 2019
Temperature: -1.0°C (30°F)
Dewpoint: -6.0°C (21°F) [RH = 69%]
Pressure (altimeter): 29.94 inches Hg (1014.0 mb)
Winds: from the E (80 degrees) at 5 MPH (4 knots; 2.1 m/s)
Visibility: 6 or more miles (10+ km)
Ceiling: at least 12,000 feet AGL
Clouds: few clouds at 22000 feet AGL
Weather: no significant weather observed at this time

METAR text: EBFS 200955Z AUTO 07005KT 9999 NCD M02/M06 Q1014 BLU
Conditions at: EBFS (FLORENNES (BEL-A, BE) observed 0955 UTC 20 January 2019
Temperature: -2.0°C (28°F)
Dewpoint: -6.0°C (21°F) [RH = 74%]
Pressure (altimeter): 29.94 inches Hg (1014.0 mb)
Winds: from the ENE (70 degrees) at 6 MPH (5 knots; 2.6 m/s)
Visibility: 6 or more miles (10+ km)
Ceiling: at least 12,000 feet AGL
Clouds: sky clear below 12,000 feet AGL
Weather: no significant weather observed at this time

METAR text: EBFS 200925Z AUTO 09004KT 9999 NCD M03/M06 Q1014 BLU
Conditions at: EBFS (FLORENNES (BEL-A, BE) observed 0925 UTC 20 January 2019
Temperature: -3.0°C (27°F)
Dewpoint: -6.0°C (21°F) [RH = 80%]
Pressure (altimeter): 29.94 inches Hg (1014.0 mb)
Winds: from the E (90 degrees) at 5 MPH (4 knots; 2.1 m/s)
Visibility: 6 or more miles (10+ km)
Ceiling: at least 12,000 feet AGL
Clouds: sky clear below 12,000 feet AGL
Weather: no significant weather observed at this time

METAR text: EBFS 200855Z AUTO 08004KT 9999 NCD M03/M06 Q1013 BLU
Conditions at: EBFS (FLORENNES (BEL-A, BE) observed 0855 UTC 20 January 2019
Temperature: -3.0°C (27°F)
Dewpoint: -6.0°C (21°F) [RH = 80%]
Pressure (altimeter): 29.91 inches Hg (1013.0 mb)
Winds: from the E (80 degrees) at 5 MPH (4 knots; 2.1 m/s)
Visibility: 6 or more miles (10+ km)
Ceiling: at least 12,000 feet AGL
Clouds: sky clear below 12,000 feet AGL
Weather: no significant weather observed at this time

METAR text: EBFS 200825Z AUTO 08003KT 9999 FEW210/// M04/M07 Q1013 BLU
Conditions at: EBFS (FLORENNES (BEL-A, BE) observed 0825 UTC 20 January 2019
Temperature: -4.0°C (25°F)
Dewpoint: -7.0°C (19°F) [RH = 80%]
Pressure (altimeter): 29.91 inches Hg (1013.0 mb)
Winds: from the E (80 degrees) at 3 MPH (3 knots; 1.5 m/s)
Visibility: 6 or more miles (10+ km)
Ceiling: at least 12,000 feet AGL
Clouds: few clouds at 21000 feet AGL
Weather: no significant weather observed at this time

METAR text: EBFS 200755Z AUTO 09003KT 9999 SCT210/// M05/M07 Q1013 BLU
Conditions at: EBFS (FLORENNES (BEL-A, BE) observed 0755 UTC 20 January 2019
Temperature: -5.0°C (23°F)
Dewpoint: -7.0°C (19°F) [RH = 86%]
Pressure (altimeter): 29.91 inches Hg (1013.0 mb)
Winds: from the E (90 degrees) at 3 MPH (3 knots; 1.5 m/s)
Visibility: 6 or more miles (10+ km)
Ceiling: at least 12,000 feet AGL
Clouds: scattered clouds at 21000 feet AGL
Weather: no significant weather observed at this time

METAR text: EBFS 200725Z AUTO 09004KT 9999 FEW180/// M05/M07 Q1012 BLU
Conditions at: EBFS (FLORENNES (BEL-A, BE) observed 0725 UTC 20 January 2019
Temperature: -5.0°C (23°F)
Dewpoint: -7.0°C (19°F) [RH = 86%]
Pressure (altimeter): 29.88 inches Hg (1012.0 mb)
Winds: from the E (90 degrees) at 5 MPH (4 knots; 2.1 m/s)
Visibility: 6 or more miles (10+ km)
Ceiling: at least 12,000 feet AGL
Clouds: few clouds at 18000 feet AGL
Weather: no significant weather observed at this time

METAR text: EBFS 200655Z AUTO 09004KT 9999 BKN200/// M05/M07 Q1012 BLU
Conditions at: EBFS (FLORENNES (BEL-A, BE) observed 0655 UTC 20 January 2019
Temperature: -5.0°C (23°F)
Dewpoint: -7.0°C (19°F) [RH = 86%]
Pressure (altimeter): 29.88 inches Hg (1012.0 mb)
Winds: from the E (90 degrees) at 5 MPH (4 knots; 2.1 m/s)
Visibility: 6 or more miles (10+ km)
Ceiling: 20000 feet AGL
Clouds: broken clouds at 20000 feet AGL
Weather: no significant weather observed at this time

METAR text: EBFS 200625Z AUTO 09005KT 9999 BKN210/// M05/M07 Q1012 BLU
Conditions at: EBFS (FLORENNES (BEL-A, BE) observed 0625 UTC 20 January 2019
Temperature: -5.0°C (23°F)
Dewpoint: -7.0°C (19°F) [RH = 86%]
Pressure (altimeter): 29.88 inches Hg (1012.0 mb)
Winds: from the E (90 degrees) at 6 MPH (5 knots; 2.6 m/s)
Visibility: 6 or more miles (10+ km)
Ceiling: 21000 feet AGL
Clouds: broken clouds at 21000 feet AGL
Weather: no significant weather observed at this time

METAR text: EBFS 200555Z AUTO 09006KT 9999 BKN200/// M05/M07 Q1011 BLU
Conditions at: EBFS (FLORENNES (BEL-A, BE) observed 0555 UTC 20 January 2019
Temperature: -5.0°C (23°F)
Dewpoint: -7.0°C (19°F) [RH = 86%]
Pressure (altimeter): 29.85 inches Hg (1011.0 mb)
Winds: from the E (90 degrees) at 7 MPH (6 knots; 3.1 m/s)
Visibility: 6 or more miles (10+ km)
Ceiling: 20000 feet AGL
Clouds: broken clouds at 20000 feet AGL
Weather: no significant weather observed at this time

METAR text: EBFS 200525Z AUTO 08006KT 9999 BKN210/// M05/M07 Q1011 BLU
Conditions at: EBFS (FLORENNES (BEL-A, BE) observed 0525 UTC 20 January 2019
Temperature: -5.0°C (23°F)
Dewpoint: -7.0°C (19°F) [RH = 86%]
Pressure (altimeter): 29.85 inches Hg (1011.0 mb)
Winds: from the E (80 degrees) at 7 MPH (6 knots; 3.1 m/s)
Visibility: 6 or more miles (10+ km)
Ceiling: 21000 feet AGL
Clouds: broken clouds at 21000 feet AGL
Weather: no significant weather observed at this time

METAR text: EBFS 200455Z AUTO 08006KT 9999 BKN210/// M04/M07 Q1011 BLU
Conditions at: EBFS (FLORENNES (BEL-A, BE) observed 0455 UTC 20 January 2019
Temperature: -4.0°C (25°F)
Dewpoint: -7.0°C (19°F) [RH = 80%]
Pressure (altimeter): 29.85 inches Hg (1011.0 mb)
Winds: from the E (80 degrees) at 7 MPH (6 knots; 3.1 m/s)
Visibility: 6 or more miles (10+ km)
Ceiling: 21000 feet AGL
Clouds: broken clouds at 21000 feet AGL
Weather: no significant weather observed at this time

METAR text: EBFS 200425Z AUTO 09005KT 9999 BKN210/// M04/M07 Q1011 BLU
Conditions at: EBFS (FLORENNES (BEL-A, BE) observed 0425 UTC 20 January 2019
Temperature: -4.0°C (25°F)
Dewpoint: -7.0°C (19°F) [RH = 80%]
Pressure (altimeter): 29.85 inches Hg (1011.0 mb)
Winds: from the E (90 degrees) at 6 MPH (5 knots; 2.6 m/s)
Visibility: 6 or more miles (10+ km)
Ceiling: 21000 feet AGL
Clouds: broken clouds at 21000 feet AGL
Weather: no significant weather observed at this time

METAR text: EBFS 200355Z AUTO 08004KT 9999 BKN200/// M03/M07 Q1011 BLU
Conditions at: EBFS (FLORENNES (BEL-A, BE) observed 0355 UTC 20 January 2019
Temperature: -3.0°C (27°F)
Dewpoint: -7.0°C (19°F) [RH = 74%]
Pressure (altimeter): 29.85 inches Hg (1011.0 mb)
Winds: from the E (80 degrees) at 5 MPH (4 knots; 2.1 m/s)
Visibility: 6 or more miles (10+ km)
Ceiling: 20000 feet AGL
Clouds: broken clouds at 20000 feet AGL
Weather: no significant weather observed at this time

METAR text: EBFS 200325Z AUTO 08006KT 9999 FEW031/// BKN210/// M03/M07 Q1011 BLU
Conditions at: EBFS (FLORENNES (BEL-A, BE) observed 0325 UTC 20 January 2019
Temperature: -3.0°C (27°F)
Dewpoint: -7.0°C (19°F) [RH = 74%]
Pressure (altimeter): 29.85 inches Hg (1011.0 mb)
Winds: from the E (80 degrees) at 7 MPH (6 knots; 3.1 m/s)
Visibility: 6 or more miles (10+ km)
Ceiling: 21000 feet AGL
Clouds: few clouds at 3100 feet AGL
broken clouds at 21000 feet AGL
Weather: no significant weather observed at this time

METAR text: EBFS 200255Z AUTO 08005KT 9999 FEW031/// BKN220/// M03/M06 Q1011 BLU
Conditions at: EBFS (FLORENNES (BEL-A, BE) observed 0255 UTC 20 January 2019
Temperature: -3.0°C (27°F)
Dewpoint: -6.0°C (21°F) [RH = 80%]
Pressure (altimeter): 29.85 inches Hg (1011.0 mb)
Winds: from the E (80 degrees) at 6 MPH (5 knots; 2.6 m/s)
Visibility: 6 or more miles (10+ km)
Ceiling: 22000 feet AGL
Clouds: few clouds at 3100 feet AGL
broken clouds at 22000 feet AGL
Weather: no significant weather observed at this time

METAR text: EBFS 200225Z AUTO 08005KT 9999 FEW033/// BKN220/// M03/M06 Q1011 BLU
Conditions at: EBFS (FLORENNES (BEL-A, BE) observed 0225 UTC 20 January 2019
Temperature: -3.0°C (27°F)
Dewpoint: -6.0°C (21°F) [RH = 80%]
Pressure (altimeter): 29.85 inches Hg (1011.0 mb)
Winds: from the E (80 degrees) at 6 MPH (5 knots; 2.6 m/s)
Visibility: 6 or more miles (10+ km)
Ceiling: 22000 feet AGL
Clouds: few clouds at 3300 feet AGL
broken clouds at 22000 feet AGL
Weather: no significant weather observed at this time

METAR text: EBFS 200155Z AUTO 09004KT 9999 BKN030/// BKN210/// M03/M06 Q1011 BLU
Conditions at: EBFS (FLORENNES (BEL-A, BE) observed 0155 UTC 20 January 2019
Temperature: -3.0°C (27°F)
Dewpoint: -6.0°C (21°F) [RH = 80%]
Pressure (altimeter): 29.85 inches Hg (1011.0 mb)
Winds: from the E (90 degrees) at 5 MPH (4 knots; 2.1 m/s)
Visibility: 6 or more miles (10+ km)
Ceiling: 3000 feet AGL
Clouds: broken clouds at 3000 feet AGL
broken clouds at 21000 feet AGL
Weather: no significant weather observed at this time

METAR text: EBFS 200125Z AUTO 10005KT 9999 BKN030/// OVC120/// M03/M06 Q1011 BLU
Conditions at: EBFS (FLORENNES (BEL-A, BE) observed 0125 UTC 20 January 2019
Temperature: -3.0°C (27°F)
Dewpoint: -6.0°C (21°F) [RH = 80%]
Pressure (altimeter): 29.85 inches Hg (1011.0 mb)
Winds: from the E (100 degrees) at 6 MPH (5 knots; 2.6 m/s)
Visibility: 6 or more miles (10+ km)
Ceiling: 3000 feet AGL
Clouds: broken clouds at 3000 feet AGL
overcast cloud deck at 12000 feet AGL
Weather: no significant weather observed at this time

METAR text: EBFS 200055Z AUTO 10006KT 9999 FEW033/// SCT120/// BKN210/// M03/M06 Q1011 BLU
Conditions at: EBFS (FLORENNES (BEL-A, BE) observed 0055 UTC 20 January 2019
Temperature: -3.0°C (27°F)
Dewpoint: -6.0°C (21°F) [RH = 80%]
Pressure (altimeter): 29.85 inches Hg (1011.0 mb)
Winds: from the E (100 degrees) at 7 MPH (6 knots; 3.1 m/s)
Visibility: 6 or more miles (10+ km)
Ceiling: 21000 feet AGL
Clouds: few clouds at 3300 feet AGL
scattered clouds at 12000 feet AGL
broken clouds at 21000 feet AGL
Weather: no significant weather observed at this time

METAR text: EBFS 200025Z AUTO 11006KT 9999 FEW120/// BKN210/// M03/M06 Q1011 BLU
Conditions at: EBFS (FLORENNES (BEL-A, BE) observed 0025 UTC 20 January 2019
Temperature: -3.0°C (27°F)
Dewpoint: -6.0°C (21°F) [RH = 80%]
Pressure (altimeter): 29.85 inches Hg (1011.0 mb)
Winds: from the ESE (110 degrees) at 7 MPH (6 knots; 3.1 m/s)
Visibility: 6 or more miles (10+ km)
Ceiling: 21000 feet AGL
Clouds: few clouds at 12000 feet AGL
broken clouds at 21000 feet AGL
Weather: no significant weather observed at this time

METAR text: EBFS 192355Z AUTO 10005KT 9999 BKN210/// M03/M06 Q1011 BLU
Conditions at: EBFS (FLORENNES (BEL-A, BE) observed 2355 UTC 19 January 2019
Temperature: -3.0°C (27°F)
Dewpoint: -6.0°C (21°F) [RH = 80%]
Pressure (altimeter): 29.85 inches Hg (1011.0 mb)
Winds: from the E (100 degrees) at 6 MPH (5 knots; 2.6 m/s)
Visibility: 6 or more miles (10+ km)
Ceiling: 21000 feet AGL
Clouds: broken clouds at 21000 feet AGL
Weather: no significant weather observed at this time

METAR text: EBFS 192325Z AUTO 12006KT 9999 BKN210/// M03/M06 Q1011 BLU
Conditions at: EBFS (FLORENNES (BEL-A, BE) observed 2325 UTC 19 January 2019
Temperature: -3.0°C (27°F)
Dewpoint: -6.0°C (21°F) [RH = 80%]
Pressure (altimeter): 29.85 inches Hg (1011.0 mb)
Winds: from the ESE (120 degrees) at 7 MPH (6 knots; 3.1 m/s)
Visibility: 6 or more miles (10+ km)
Ceiling: 21000 feet AGL
Clouds: broken clouds at 21000 feet AGL
Weather: no significant weather observed at this time

METAR text: EBFS 192255Z AUTO 12007KT 9999 BKN210/// M02/M06 Q1011 BLU
Conditions at: EBFS (FLORENNES (BEL-A, BE) observed 2255 UTC 19 January 2019
Temperature: -2.0°C (28°F)
Dewpoint: -6.0°C (21°F) [RH = 74%]
Pressure (altimeter): 29.85 inches Hg (1011.0 mb)
Winds: from the ESE (120 degrees) at 8 MPH (7 knots; 3.6 m/s)
Visibility: 6 or more miles (10+ km)
Ceiling: 21000 feet AGL
Clouds: broken clouds at 21000 feet AGL
Weather: no significant weather observed at this time

METAR text: EBFS 192225Z AUTO 13008KT 9999 BKN200/// M02/M06 Q1011 BLU
Conditions at: EBFS (FLORENNES (BEL-A, BE) observed 2225 UTC 19 January 2019
Temperature: -2.0°C (28°F)
Dewpoint: -6.0°C (21°F) [RH = 74%]
Pressure (altimeter): 29.85 inches Hg (1011.0 mb)
Winds: from the SE (130 degrees) at 9 MPH (8 knots; 4.1 m/s)
Visibility: 6 or more miles (10+ km)
Ceiling: 20000 feet AGL
Clouds: broken clouds at 20000 feet AGL
Weather: no significant weather observed at this time

METAR text: EBFS 192155Z AUTO 13007KT 9999 BKN200/// M02/M05 Q1011 BLU
Conditions at: EBFS (FLORENNES (BEL-A, BE) observed 2155 UTC 19 January 2019
Temperature: -2.0°C (28°F)
Dewpoint: -5.0°C (23°F) [RH = 80%]
Pressure (altimeter): 29.85 inches Hg (1011.0 mb)
Winds: from the SE (130 degrees) at 8 MPH (7 knots; 3.6 m/s)
Visibility: 6 or more miles (10+ km)
Ceiling: 20000 feet AGL
Clouds: broken clouds at 20000 feet AGL
Weather: no significant weather observed at this time

METAR text: EBFS 192125Z AUTO 12007KT 9999 BKN200/// M02/M05 Q1011 BLU
Conditions at: EBFS (FLORENNES (BEL-A, BE) observed 2125 UTC 19 January 2019
Temperature: -2.0°C (28°F)
Dewpoint: -5.0°C (23°F) [RH = 80%]
Pressure (altimeter): 29.85 inches Hg (1011.0 mb)
Winds: from the ESE (120 degrees) at 8 MPH (7 knots; 3.6 m/s)
Visibility: 6 or more miles (10+ km)
Ceiling: 20000 feet AGL
Clouds: broken clouds at 20000 feet AGL
Weather: no significant weather observed at this time

METAR text: EBFS 192055Z AUTO 11006KT 9999 BKN210/// M02/M05 Q1011 BLU
Conditions at: EBFS (FLORENNES (BEL-A, BE) observed 2055 UTC 19 January 2019
Temperature: -2.0°C (28°F)
Dewpoint: -5.0°C (23°F) [RH = 80%]
Pressure (altimeter): 29.85 inches Hg (1011.0 mb)
Winds: from the ESE (110 degrees) at 7 MPH (6 knots; 3.1 m/s)
Visibility: 6 or more miles (10+ km)
Ceiling: 21000 feet AGL
Clouds: broken clouds at 21000 feet AGL
Weather: no significant weather observed at this time

METAR text: EBFS 192025Z AUTO 11007KT 9999 BKN210/// M02/M05 Q1011 BLU
Conditions at: EBFS (FLORENNES (BEL-A, BE) observed 2025 UTC 19 January 2019
Temperature: -2.0°C (28°F)
Dewpoint: -5.0°C (23°F) [RH = 80%]
Pressure (altimeter): 29.85 inches Hg (1011.0 mb)
Winds: from the ESE (110 degrees) at 8 MPH (7 knots; 3.6 m/s)
Visibility: 6 or more miles (10+ km)
Ceiling: 21000 feet AGL
Clouds: broken clouds at 21000 feet AGL
Weather: no significant weather observed at this time

METAR text: EBFS 191955Z AUTO 10006KT 9999 BKN210/// M02/M05 Q1011 BLU
Conditions at: EBFS (FLORENNES (BEL-A, BE) observed 1955 UTC 19 January 2019
Temperature: -2.0°C (28°F)
Dewpoint: -5.0°C (23°F) [RH = 80%]
Pressure (altimeter): 29.85 inches Hg (1011.0 mb)
Winds: from the E (100 degrees) at 7 MPH (6 knots; 3.1 m/s)
Visibility: 6 or more miles (10+ km)
Ceiling: 21000 feet AGL
Clouds: broken clouds at 21000 feet AGL
Weather: no significant weather observed at this time

METAR text: EBFS 191925Z AUTO 11006KT 9999 BKN210/// M02/M05 Q1010 BLU
Conditions at: EBFS (FLORENNES (BEL-A, BE) observed 1925 UTC 19 January 2019
Temperature: -2.0°C (28°F)
Dewpoint: -5.0°C (23°F) [RH = 80%]
Pressure (altimeter): 29.82 inches Hg (1010.0 mb)
Winds: from the ESE (110 degrees) at 7 MPH (6 knots; 3.1 m/s)
Visibility: 6 or more miles (10+ km)
Ceiling: 21000 feet AGL
Clouds: broken clouds at 21000 feet AGL
Weather: no significant weather observed at this time

METAR text: EBFS 191855Z AUTO 11006KT 9999 BKN200/// M02/M05 Q1011 BLU
Conditions at: EBFS (FLORENNES (BEL-A, BE) observed 1855 UTC 19 January 2019
Temperature: -2.0°C (28°F)
Dewpoint: -5.0°C (23°F) [RH = 80%]
Pressure (altimeter): 29.85 inches Hg (1011.0 mb)
Winds: from the ESE (110 degrees) at 7 MPH (6 knots; 3.1 m/s)
Visibility: 6 or more miles (10+ km)
Ceiling: 20000 feet AGL
Clouds: broken clouds at 20000 feet AGL
Weather: no significant weather observed at this time

METAR text: EBFS 191825Z AUTO 11007KT 9999 BKN210/// M01/M05 Q1011 BLU
Conditions at: EBFS (FLORENNES (BEL-A, BE) observed 1825 UTC 19 January 2019
Temperature: -1.0°C (30°F)
Dewpoint: -5.0°C (23°F) [RH = 74%]
Pressure (altimeter): 29.85 inches Hg (1011.0 mb)
Winds: from the ESE (110 degrees) at 8 MPH (7 knots; 3.6 m/s)
Visibility: 6 or more miles (10+ km)
Ceiling: 21000 feet AGL
Clouds: broken clouds at 21000 feet AGL
Weather: no significant weather observed at this time

Forecast for: EBFS (FLORENNES (BEL-A, BE)
Text: TAF EBFS 210541Z 2107/2116 VRB03KT 9999 FEW230
Forecast period: 0700 to 1600 UTC 21 January 2019
Forecast type: FROM: standard forecast or significant change
Winds: variable direction winds at 3 MPH (3 knots; 1.5 m/s)
Visibility: 6 or more miles 10+ km)
Ceiling: at least 12,000 feet AGL
Clouds: few clouds at 23000 feet AGL
Weather: no significant weather forecast for this period
Text: TEMPO 2105/2109 4000 BR
Forecast period: 0500 to 0900 UTC 21 January 2019
Forecast type: TEMPORARY: The following changes expected for less than half the time period
Visibility: 2.49 miles (4.01 km)
Ceiling: unknown
Clouds: missing
Weather: BR  (mist)
Text: PROB30
Forecast period: 0600 to 0800 UTC 21 January 2019
Forecast type: TEMPORARY: The following changes expected for less than half the time period
Visibility: 1.24 miles (2.00 km)
Ceiling: unknown
Clouds: missing
Weather: BR  (mist)